createdAt,value
2024-04-26T00:00:01.455Z,4.42
2024-04-26T00:00:11.369Z,4.64
2024-04-26T00:00:21.339Z,4.52
2024-04-26T00:00:31.919Z,4.47
2024-04-26T00:00:41.309Z,4.47
2024-04-26T00:00:51.325Z,4.52
2024-04-26T00:01:01.387Z,4.57
2024-04-26T00:01:21.347Z,4.50
2024-04-26T00:01:31.347Z,4.42
2024-04-26T00:01:41.349Z,4.43
2024-04-26T00:01:51.345Z,4.54
2024-04-26T00:02:01.386Z,4.62
2024-04-26T00:02:11.317Z,4.37
2024-04-26T00:02:21.367Z,4.51
2024-04-26T00:02:41.416Z,4.44
2024-04-26T00:02:51.394Z,4.47
2024-04-26T00:03:01.483Z,4.51
2024-04-26T00:03:11.368Z,4.55
2024-04-26T00:03:21.384Z,4.50
2024-04-26T00:03:31.386Z,4.70
2024-04-26T00:03:41.954Z,4.61
2024-04-26T00:04:01.300Z,4.54
2024-04-26T00:04:11.313Z,4.36
2024-04-26T00:04:21.331Z,4.54
2024-04-26T00:04:31.367Z,4.61
2024-04-26T00:04:41.370Z,4.58
2024-04-26T00:04:51.327Z,4.67
2024-04-26T00:05:11.315Z,4.37
2024-04-26T00:05:21.344Z,4.54
2024-04-26T00:05:31.325Z,4.47
2024-04-26T00:05:41.390Z,4.32
2024-04-26T00:05:51.386Z,4.42
2024-04-26T00:06:01.363Z,4.54
2024-04-26T00:06:21.308Z,4.40
2024-04-26T00:06:31.296Z,4.51
2024-04-26T00:06:41.336Z,4.54
2024-04-26T00:06:51.328Z,4.59
2024-04-26T00:07:01.291Z,4.34
2024-04-26T00:07:11.296Z,4.61
2024-04-26T00:07:21.946Z,4.51
2024-04-26T00:07:31.302Z,4.62
2024-04-26T00:07:41.305Z,4.55
2024-04-26T00:08:01.329Z,4.58
2024-04-26T00:08:11.368Z,4.51
2024-04-26T00:08:21.355Z,4.50
2024-04-26T00:08:31.286Z,4.40
2024-04-26T00:08:41.368Z,4.42
2024-04-26T00:08:52.007Z,4.36
2024-04-26T00:09:11.297Z,4.52
2024-04-26T00:09:21.915Z,4.50
2024-04-26T00:09:31.286Z,4.39
2024-04-26T00:09:41.276Z,4.42
2024-04-26T00:09:51.269Z,4.51
2024-04-26T00:10:01.328Z,4.52
2024-04-26T00:10:21.346Z,4.44
2024-04-26T00:10:31.288Z,4.47
2024-04-26T00:10:41.265Z,4.37
2024-04-26T00:10:51.270Z,4.43
2024-04-26T00:11:01.354Z,4.37
2024-04-26T00:11:11.287Z,4.52
2024-04-26T00:11:31.314Z,4.59
2024-04-26T00:11:41.435Z,4.47
2024-04-26T00:11:51.307Z,4.44
2024-04-26T00:12:01.319Z,4.43
2024-04-26T00:12:11.422Z,4.33
2024-04-26T00:12:21.340Z,4.55
2024-04-26T00:12:31.333Z,4.55
2024-04-26T00:12:51.280Z,4.51
2024-04-26T00:13:01.308Z,4.44
2024-04-26T00:13:11.335Z,4.42
2024-04-26T00:13:21.442Z,4.40
2024-04-26T00:13:31.269Z,4.46
2024-04-26T00:13:41.288Z,4.26
2024-04-26T00:13:51.266Z,4.58
2024-04-26T00:14:11.307Z,4.39
2024-04-26T00:14:21.299Z,4.47
2024-04-26T00:14:31.399Z,4.52
2024-04-26T00:14:41.290Z,4.32
2024-04-26T00:14:51.287Z,4.51
2024-04-26T00:15:01.384Z,4.58
2024-04-26T00:15:21.268Z,4.32
2024-04-26T00:15:31.244Z,4.47
2024-04-26T00:15:41.254Z,4.44
2024-04-26T00:15:51.257Z,4.46
2024-04-26T00:16:01.267Z,4.34
2024-04-26T00:16:11.294Z,4.19
2024-04-26T00:16:21.282Z,4.46
2024-04-26T00:16:31.278Z,4.39
2024-04-26T00:16:41.360Z,4.44
2024-04-26T00:16:51.414Z,4.34
2024-04-26T00:17:01.993Z,4.28
2024-04-26T00:17:11.267Z,4.36
2024-04-26T00:17:21.619Z,4.36
2024-04-26T00:17:41.302Z,4.33
2024-04-26T00:17:51.265Z,4.43
2024-04-26T00:18:01.326Z,4.29
2024-04-26T00:18:11.325Z,4.22
2024-04-26T00:18:21.293Z,4.24
2024-04-26T00:18:31.333Z,4.37
2024-04-26T00:18:51.248Z,4.14
2024-04-26T00:19:01.997Z,4.33
2024-04-26T00:19:11.295Z,4.42
2024-04-26T00:19:21.250Z,4.25
2024-04-26T00:19:31.349Z,4.32
2024-04-26T00:19:41.236Z,4.26
2024-04-26T00:20:01.256Z,4.42
2024-04-26T00:20:11.245Z,4.25
2024-04-26T00:20:21.302Z,4.24
2024-04-26T00:20:31.387Z,4.25
2024-04-26T00:20:41.334Z,4.22
2024-04-26T00:20:51.275Z,4.33
2024-04-26T00:21:01.237Z,4.28
2024-04-26T00:21:11.248Z,4.44
2024-04-26T00:21:31.310Z,4.32
2024-04-26T00:21:41.230Z,4.37
2024-04-26T00:21:51.247Z,4.18
2024-04-26T00:22:01.224Z,4.40
2024-04-26T00:22:11.232Z,4.24
2024-04-26T00:22:21.269Z,4.28
2024-04-26T00:22:41.239Z,4.42
2024-04-26T00:22:58.012Z,4.51
2024-04-26T00:23:01.213Z,4.26
2024-04-26T00:23:11.238Z,4.26
2024-04-26T00:23:21.986Z,4.42
2024-04-26T00:23:31.264Z,4.29
2024-04-26T00:23:41.411Z,4.50
2024-04-26T00:24:01.243Z,4.34
2024-04-26T00:24:11.242Z,4.12
2024-04-26T00:24:21.213Z,4.22
2024-04-26T00:24:31.942Z,4.21
2024-04-26T00:24:41.253Z,4.14
2024-04-26T00:24:51.252Z,4.39
2024-04-26T00:25:01.223Z,4.36
2024-04-26T00:25:21.207Z,4.32
2024-04-26T00:25:31.945Z,4.25
2024-04-26T00:25:41.270Z,4.28
2024-04-26T00:25:51.206Z,4.24
2024-04-26T00:26:01.215Z,4.14
2024-04-26T00:26:11.239Z,4.21
2024-04-26T00:26:31.251Z,4.32
2024-04-26T00:26:44.500Z,4.18
2024-04-26T00:26:51.224Z,4.22
2024-04-26T00:27:01.278Z,4.29
2024-04-26T00:27:11.492Z,4.06
2024-04-26T00:27:21.286Z,4.25
2024-04-26T00:27:31.359Z,4.24
2024-04-26T00:27:51.201Z,4.14
2024-04-26T00:28:01.210Z,4.36
2024-04-26T00:28:11.202Z,4.25
2024-04-26T00:28:21.234Z,4.21
2024-04-26T00:28:31.211Z,4.12
2024-04-26T00:28:41.186Z,4.32
2024-04-26T00:28:51.264Z,4.18
2024-04-26T00:29:18.013Z,4.26
2024-04-26T00:29:21.300Z,4.07
2024-04-26T00:29:31.198Z,4.03
2024-04-26T00:29:41.210Z,4.22
2024-04-26T00:29:51.303Z,4.25
2024-04-26T00:30:01.382Z,4.07
2024-04-26T00:30:21.216Z,4.28
2024-04-26T00:30:31.220Z,3.90
2024-04-26T00:30:41.205Z,4.16
2024-04-26T00:30:51.211Z,4.25
2024-04-26T00:31:01.192Z,4.10
2024-04-26T00:31:11.209Z,4.12
2024-04-26T00:31:31.191Z,4.24
2024-04-26T00:31:41.202Z,4.18
2024-04-26T00:31:51.979Z,4.10
2024-04-26T00:32:01.341Z,4.19
2024-04-26T00:32:11.311Z,4.19
2024-04-26T00:32:41.269Z,4.14
2024-04-26T00:32:51.315Z,4.15
2024-04-26T00:33:01.446Z,4.25
2024-04-26T00:33:11.287Z,4.14
2024-04-26T00:33:21.273Z,4.18
2024-04-26T00:33:31.325Z,4.19
2024-04-26T00:33:51.290Z,4.01
2024-04-26T00:34:02.107Z,4.01
2024-04-26T00:34:11.187Z,3.90
2024-04-26T00:34:21.196Z,3.97
2024-04-26T00:34:31.202Z,4.04
2024-04-26T00:34:41.197Z,3.92
2024-04-26T00:35:01.196Z,3.92
2024-04-26T00:35:11.336Z,4.06
2024-04-26T00:35:21.180Z,4.03
2024-04-26T00:35:31.200Z,4.01
2024-04-26T00:35:41.176Z,3.92
2024-04-26T00:35:51.178Z,3.96
2024-04-26T00:36:01.252Z,3.98
2024-04-26T00:36:21.193Z,3.88
2024-04-26T00:36:31.191Z,4.06
2024-04-26T00:36:41.152Z,4.00
2024-04-26T00:36:51.177Z,3.79
2024-04-26T00:37:01.192Z,3.96
2024-04-26T00:37:11.238Z,3.86
2024-04-26T00:37:21.208Z,3.86
2024-04-26T00:37:41.160Z,3.83
2024-04-26T00:37:51.148Z,3.86
2024-04-26T00:38:01.206Z,3.90
2024-04-26T00:38:11.216Z,3.86
2024-04-26T00:38:21.209Z,3.82
2024-04-26T00:38:31.189Z,3.85
2024-04-26T00:38:41.280Z,3.79
2024-04-26T00:39:01.291Z,3.90
2024-04-26T00:39:11.205Z,3.96
2024-04-26T00:39:21.224Z,4.00
2024-04-26T00:39:31.140Z,3.82
2024-04-26T00:39:41.150Z,3.92
2024-04-26T00:39:51.934Z,3.82
2024-04-26T00:40:11.950Z,3.64
2024-04-26T00:40:21.167Z,3.89
2024-04-26T00:40:31.174Z,3.85
2024-04-26T00:40:41.148Z,3.86
2024-04-26T00:40:51.166Z,3.97
2024-04-26T00:41:01.171Z,3.82
2024-04-26T00:41:11.955Z,3.83
2024-04-26T00:41:31.177Z,3.86
2024-04-26T00:41:41.198Z,3.98
2024-04-26T00:41:51.173Z,3.90
2024-04-26T00:42:01.205Z,3.88
2024-04-26T00:42:11.140Z,3.82
2024-04-26T00:42:21.192Z,3.96
2024-04-26T00:42:31.159Z,3.79
2024-04-26T00:42:51.171Z,3.85
2024-04-26T00:43:01.154Z,3.96
2024-04-26T00:43:11.165Z,3.78
2024-04-26T00:43:21.158Z,3.78
2024-04-26T00:43:31.259Z,3.83
2024-04-26T00:43:41.224Z,3.78
2024-04-26T00:44:01.146Z,3.97
2024-04-26T00:44:11.159Z,3.80
2024-04-26T00:44:21.522Z,3.98
2024-04-26T00:44:31.197Z,3.72
2024-04-26T00:44:41.222Z,4.00
2024-04-26T00:44:51.176Z,3.94
2024-04-26T00:45:11.126Z,3.85
2024-04-26T00:45:21.122Z,3.82
2024-04-26T00:45:31.122Z,3.86
2024-04-26T00:45:41.126Z,3.86
2024-04-26T00:45:51.139Z,3.97
2024-04-26T00:46:01.131Z,3.78
2024-04-26T00:46:21.214Z,3.76
2024-04-26T00:46:31.210Z,3.76
2024-04-26T00:46:41.115Z,3.88
2024-04-26T00:46:51.184Z,3.94
2024-04-26T00:47:01.119Z,3.85
2024-04-26T00:47:11.140Z,3.94
2024-04-26T00:47:31.237Z,3.85
2024-04-26T00:47:41.200Z,3.82
2024-04-26T00:47:51.298Z,3.83
2024-04-26T00:48:01.350Z,3.92
2024-04-26T00:48:11.272Z,3.92
2024-04-26T00:48:21.410Z,3.72
2024-04-26T00:48:31.281Z,3.83
2024-04-26T00:48:51.162Z,3.79
2024-04-26T00:49:01.444Z,3.88
2024-04-26T00:49:11.181Z,3.68
2024-04-26T00:49:21.938Z,3.80
2024-04-26T00:49:31.146Z,3.79
2024-04-26T00:49:41.113Z,3.82
2024-04-26T00:49:51.151Z,3.82
2024-04-26T00:50:01.125Z,3.83
2024-04-26T00:50:11.157Z,3.92
2024-04-26T00:50:23.945Z,3.94
2024-04-26T00:50:41.160Z,3.78
2024-04-26T00:50:51.129Z,3.68
2024-04-26T00:51:01.137Z,3.70
2024-04-26T00:51:11.142Z,3.80
2024-04-26T00:51:21.096Z,3.88
2024-04-26T00:51:31.102Z,3.85
2024-04-26T00:51:41.234Z,3.92
2024-04-26T00:52:01.096Z,3.94
2024-04-26T00:52:11.977Z,3.78
2024-04-26T00:52:21.097Z,3.79
2024-04-26T00:52:31.100Z,3.79
2024-04-26T00:52:41.129Z,3.82
2024-04-26T00:52:51.092Z,3.71
2024-04-26T00:53:01.194Z,3.92
2024-04-26T00:53:21.244Z,3.85
2024-04-26T00:53:31.115Z,3.67
2024-04-26T00:53:41.125Z,3.72
2024-04-26T00:53:51.208Z,3.79
2024-04-26T00:54:01.194Z,3.75
2024-04-26T00:54:11.090Z,3.88
2024-04-26T00:54:31.096Z,3.76
2024-04-26T00:54:41.466Z,3.76
2024-04-26T00:54:51.952Z,3.64
2024-04-26T00:55:01.118Z,3.76
2024-04-26T00:55:11.087Z,3.89
2024-04-26T00:55:21.105Z,3.82
2024-04-26T00:55:31.936Z,3.79
2024-04-26T00:55:51.099Z,3.90
2024-04-26T00:56:01.183Z,3.90
2024-04-26T00:56:11.081Z,3.79
2024-04-26T00:56:21.087Z,3.70
2024-04-26T00:56:31.206Z,3.71
2024-04-26T00:56:41.159Z,3.80
2024-04-26T00:56:51.239Z,3.76
2024-04-26T00:57:11.080Z,3.70
2024-04-26T00:57:21.962Z,3.92
2024-04-26T00:57:31.071Z,3.79
2024-04-26T00:57:41.143Z,3.70
2024-04-26T00:57:51.092Z,4.01
2024-04-26T00:58:01.070Z,3.82
2024-04-26T00:58:11.929Z,3.85
2024-04-26T00:58:31.082Z,3.60
2024-04-26T00:58:41.263Z,3.76
2024-04-26T00:58:51.098Z,3.86
2024-04-26T00:59:01.067Z,3.79
2024-04-26T00:59:11.062Z,3.68
2024-04-26T00:59:21.123Z,3.83
2024-04-26T00:59:41.122Z,3.67
2024-04-26T00:59:51.151Z,3.71
2024-04-26T01:00:01.222Z,3.79
2024-04-26T01:00:11.089Z,3.71
2024-04-26T01:00:21.066Z,3.72
2024-04-26T01:00:31.062Z,3.83
2024-04-26T01:00:41.096Z,3.89
2024-04-26T01:01:02.048Z,3.79
2024-04-26T01:01:11.180Z,3.57
2024-04-26T01:01:21.069Z,3.64
2024-04-26T01:01:31.081Z,3.85
2024-04-26T01:01:41.133Z,3.80
2024-04-26T01:01:51.055Z,3.72
2024-04-26T01:02:11.259Z,3.80
2024-04-26T01:02:21.207Z,3.70
2024-04-26T01:02:31.090Z,3.79
2024-04-26T01:02:41.070Z,3.90
2024-04-26T01:02:51.120Z,3.65
2024-04-26T01:03:01.215Z,3.65
2024-04-26T01:03:21.045Z,3.82
2024-04-26T01:03:31.079Z,3.64
2024-04-26T01:03:41.053Z,3.79
2024-04-26T01:03:51.060Z,3.80
2024-04-26T01:04:01.082Z,3.75
2024-04-26T01:04:11.090Z,3.68
2024-04-26T01:04:21.083Z,3.83
2024-04-26T01:04:31.258Z,3.68
2024-04-26T01:04:41.992Z,3.79
2024-04-26T01:05:01.123Z,3.79
2024-04-26T01:05:11.146Z,3.78
2024-04-26T01:05:21.155Z,3.68
2024-04-26T01:05:31.044Z,3.83
2024-04-26T01:05:41.067Z,3.89
2024-04-26T01:05:51.096Z,3.71
2024-04-26T01:06:11.055Z,3.82
2024-04-26T01:06:21.063Z,3.61
2024-04-26T01:06:31.027Z,3.88
2024-04-26T01:06:41.068Z,3.88
2024-04-26T01:06:51.070Z,3.92
2024-04-26T01:07:01.054Z,3.86
2024-04-26T01:07:11.140Z,3.80
2024-04-26T01:07:31.034Z,3.86
2024-04-26T01:07:41.041Z,3.92
2024-04-26T01:07:51.045Z,3.78
2024-04-26T01:08:01.032Z,3.90
2024-04-26T01:08:14.025Z,3.97
2024-04-26T01:08:21.064Z,3.90
2024-04-26T01:08:41.078Z,3.68
2024-04-26T01:08:51.090Z,3.89
2024-04-26T01:09:01.120Z,3.82
2024-04-26T01:09:12.074Z,3.82
2024-04-26T01:09:21.096Z,3.70
2024-04-26T01:09:31.039Z,3.82
2024-04-26T01:09:41.085Z,3.75
2024-04-26T01:10:01.048Z,3.79
2024-04-26T01:10:11.097Z,3.85
2024-04-26T01:10:21.014Z,3.88
2024-04-26T01:10:31.030Z,3.76
2024-04-26T01:10:41.067Z,3.89
2024-04-26T01:10:51.083Z,3.82
2024-04-26T01:11:11.080Z,3.76
2024-04-26T01:11:21.178Z,3.82
2024-04-26T01:11:31.280Z,3.78
2024-04-26T01:11:41.116Z,3.78
2024-04-26T01:11:51.982Z,3.72
2024-04-26T01:12:01.147Z,3.96
2024-04-26T01:12:21.000Z,3.82
2024-04-26T01:12:31.046Z,3.94
2024-04-26T01:12:41.057Z,3.78
2024-04-26T01:12:51.022Z,3.75
2024-04-26T01:13:01.042Z,3.90
2024-04-26T01:13:11.026Z,3.83
2024-04-26T01:13:21.062Z,3.82
2024-04-26T01:13:31.062Z,3.85
2024-04-26T01:13:41.021Z,3.86
2024-04-26T01:14:01.041Z,3.71
2024-04-26T01:14:11.928Z,3.86
2024-04-26T01:14:21.012Z,3.83
2024-04-26T01:14:31.059Z,3.70
2024-04-26T01:14:41.043Z,3.86
2024-04-26T01:14:51.193Z,3.85
2024-04-26T01:15:01.231Z,3.72
2024-04-26T01:15:11.935Z,3.70
2024-04-26T01:15:21.058Z,3.72
2024-04-26T01:15:31.947Z,3.79
2024-04-26T01:15:51.020Z,3.71
2024-04-26T01:16:00.987Z,3.85
2024-04-26T01:16:10.994Z,3.90
2024-04-26T01:16:20.992Z,3.75
2024-04-26T01:16:31.082Z,3.75
2024-04-26T01:16:40.999Z,3.76
2024-04-26T01:16:51.090Z,3.85
2024-04-26T01:17:00.993Z,3.67
2024-04-26T01:17:11.048Z,3.82
2024-04-26T01:17:21.135Z,3.72
2024-04-26T01:17:32.191Z,3.85
2024-04-26T01:17:41.105Z,3.67
2024-04-26T01:18:01.209Z,3.68
2024-04-26T01:18:11.157Z,3.72
2024-04-26T01:18:21.226Z,3.61
2024-04-26T01:18:31.141Z,3.62
2024-04-26T01:18:41.125Z,3.65
2024-04-26T01:18:51.287Z,3.71
2024-04-26T01:19:01.122Z,3.80
2024-04-26T01:19:21.010Z,3.60
2024-04-26T01:19:30.996Z,3.65
2024-04-26T01:19:42.073Z,3.83
2024-04-26T01:19:50.989Z,3.72
2024-04-26T01:20:01.169Z,3.65
2024-04-26T01:20:10.976Z,3.57
2024-04-26T01:20:21.083Z,3.57
2024-04-26T01:20:31.096Z,3.64
2024-04-26T01:20:51.171Z,3.70
2024-04-26T01:21:00.982Z,3.67
2024-04-26T01:21:11.016Z,3.67
2024-04-26T01:21:20.967Z,3.44
2024-04-26T01:21:30.999Z,3.49
2024-04-26T01:21:40.987Z,3.65
2024-04-26T01:22:01.007Z,3.53
2024-04-26T01:22:11.010Z,3.43
2024-04-26T01:22:21.043Z,3.57
2024-04-26T01:22:30.964Z,3.72
2024-04-26T01:22:40.972Z,3.67
2024-04-26T01:22:51.093Z,3.44
2024-04-26T01:23:10.974Z,3.61
2024-04-26T01:23:20.994Z,3.47
2024-04-26T01:23:30.994Z,3.62
2024-04-26T01:23:40.983Z,3.47
2024-04-26T01:23:51.015Z,3.57
2024-04-26T01:24:01.113Z,3.53
2024-04-26T01:24:10.987Z,3.54
2024-04-26T01:24:21.040Z,3.44
2024-04-26T01:24:31.011Z,3.50
2024-04-26T01:24:41.032Z,3.65
2024-04-26T01:24:51.063Z,3.65
2024-04-26T01:25:00.980Z,3.68
2024-04-26T01:25:20.976Z,3.34
2024-04-26T01:25:31.016Z,3.61
2024-04-26T01:25:41.031Z,3.46
2024-04-26T01:25:50.953Z,3.36
2024-04-26T01:26:00.993Z,3.53
2024-04-26T01:26:11.081Z,3.64
2024-04-26T01:26:20.994Z,3.44
2024-04-26T01:26:41.023Z,3.49
2024-04-26T01:26:50.978Z,3.46
2024-04-26T01:27:00.963Z,3.44
2024-04-26T01:27:10.988Z,3.54
2024-04-26T01:27:20.999Z,3.60
2024-04-26T01:27:31.054Z,3.34
2024-04-26T01:27:50.950Z,3.60
2024-04-26T01:28:01.014Z,3.52
2024-04-26T01:28:10.955Z,3.62
2024-04-26T01:28:21.067Z,3.44
2024-04-26T01:28:31.043Z,3.40
2024-04-26T01:28:40.986Z,3.70
2024-04-26T01:29:00.952Z,3.52
2024-04-26T01:29:10.973Z,3.49
2024-04-26T01:29:21.005Z,3.33
2024-04-26T01:29:30.981Z,3.60
2024-04-26T01:29:40.966Z,3.53
2024-04-26T01:29:51.030Z,3.78
2024-04-26T01:30:01.001Z,3.62
2024-04-26T01:30:11.119Z,3.50
2024-04-26T01:30:30.957Z,3.57
2024-04-26T01:30:40.945Z,3.53
2024-04-26T01:30:51.012Z,3.58
2024-04-26T01:31:00.947Z,3.61
2024-04-26T01:31:10.948Z,3.57
2024-04-26T01:31:20.951Z,3.50
2024-04-26T01:31:30.955Z,3.60
2024-04-26T01:31:50.975Z,3.34
2024-04-26T01:32:01.007Z,3.58
2024-04-26T01:32:10.969Z,3.61
2024-04-26T01:32:21.015Z,3.50
2024-04-26T01:32:31.016Z,3.61
2024-04-26T01:32:41.127Z,3.42
2024-04-26T01:33:01.018Z,3.50
2024-04-26T01:33:10.999Z,3.46
2024-04-26T01:33:21.142Z,3.53
2024-04-26T01:33:30.995Z,3.64
2024-04-26T01:33:40.979Z,3.42
2024-04-26T01:33:51.455Z,3.57
2024-04-26T01:34:20.980Z,3.60
2024-04-26T01:34:30.924Z,3.62
2024-04-26T01:34:40.931Z,3.46
2024-04-26T01:34:50.990Z,3.47
2024-04-26T01:35:00.923Z,3.42
2024-04-26T01:35:21.051Z,3.49
2024-04-26T01:35:30.953Z,3.50
2024-04-26T01:35:41.002Z,3.46
2024-04-26T01:35:51.033Z,3.44
2024-04-26T01:36:01.471Z,3.36
2024-04-26T01:36:11.053Z,3.50
2024-04-26T01:36:20.958Z,3.39
2024-04-26T01:36:30.924Z,3.44
2024-04-26T01:36:50.915Z,3.46
2024-04-26T01:37:00.903Z,3.40
2024-04-26T01:37:10.963Z,3.53
2024-04-26T01:37:20.941Z,3.44
2024-04-26T01:37:30.908Z,3.44
2024-04-26T01:37:40.945Z,3.67
2024-04-26T01:38:00.911Z,3.49
2024-04-26T01:38:10.929Z,3.58
2024-04-26T01:38:20.905Z,3.54
2024-04-26T01:38:30.975Z,3.49
2024-04-26T01:38:40.926Z,3.50
2024-04-26T01:38:50.923Z,3.54
2024-04-26T01:39:10.943Z,3.76
2024-04-26T01:39:20.907Z,3.44
2024-04-26T01:39:30.906Z,3.43
2024-04-26T01:39:41.034Z,3.44
2024-04-26T01:39:50.973Z,3.61
2024-04-26T01:40:01.053Z,3.53
2024-04-26T01:40:10.928Z,3.42
2024-04-26T01:40:31.435Z,3.50
2024-04-26T01:40:40.884Z,3.34
2024-04-26T01:40:51.489Z,3.62
2024-04-26T01:41:00.898Z,3.52
2024-04-26T01:41:10.973Z,3.61
2024-04-26T01:41:20.899Z,3.53
2024-04-26T01:41:40.898Z,3.52
2024-04-26T01:41:50.902Z,3.34
2024-04-26T01:42:00.951Z,3.62
2024-04-26T01:42:10.944Z,3.43
2024-04-26T01:42:20.896Z,3.53
2024-04-26T01:42:30.929Z,3.54
2024-04-26T01:42:40.971Z,3.62
2024-04-26T01:43:00.914Z,3.53
2024-04-26T01:43:10.898Z,3.67
2024-04-26T01:43:20.876Z,3.62
2024-04-26T01:43:30.926Z,3.46
2024-04-26T01:43:40.889Z,3.61
2024-04-26T01:43:50.889Z,3.57
2024-04-26T01:44:10.884Z,3.49
2024-04-26T01:44:20.915Z,3.61
2024-04-26T01:44:30.886Z,3.46
2024-04-26T01:44:40.923Z,3.58
2024-04-26T01:44:51.084Z,3.58
2024-04-26T01:45:01.094Z,3.46
2024-04-26T01:45:20.939Z,3.46
2024-04-26T01:45:30.968Z,3.50
2024-04-26T01:45:40.868Z,3.65
2024-04-26T01:45:50.917Z,3.64
2024-04-26T01:46:00.920Z,3.52
2024-04-26T01:46:10.937Z,3.62
2024-04-26T01:46:20.939Z,3.54
2024-04-26T01:46:40.930Z,3.57
2024-04-26T01:46:51.121Z,3.62
2024-04-26T01:47:01.075Z,3.47
2024-04-26T01:47:10.886Z,3.60
2024-04-26T01:47:20.913Z,3.57
2024-04-26T01:47:30.965Z,3.42
2024-04-26T01:47:50.955Z,3.50
2024-04-26T01:48:01.669Z,3.60
2024-04-26T01:48:10.956Z,3.61
2024-04-26T01:48:21.664Z,3.43
2024-04-26T01:48:31.131Z,3.52
2024-04-26T01:48:40.947Z,3.65
2024-04-26T01:48:51.534Z,3.60
2024-04-26T01:49:10.853Z,3.52
2024-04-26T01:49:20.964Z,3.58
2024-04-26T01:49:30.860Z,3.46
2024-04-26T01:49:40.891Z,3.50
2024-04-26T01:49:50.856Z,3.58
2024-04-26T01:50:00.916Z,3.30
2024-04-26T01:50:20.884Z,3.60
2024-04-26T01:50:30.899Z,3.58
2024-04-26T01:50:40.956Z,3.60
2024-04-26T01:50:50.951Z,3.54
2024-04-26T01:51:01.214Z,3.52
2024-04-26T01:51:10.900Z,3.50
2024-04-26T01:51:30.923Z,3.60
2024-04-26T01:51:40.854Z,3.61
2024-04-26T01:51:50.834Z,3.57
2024-04-26T01:52:00.850Z,3.65
2024-04-26T01:52:10.870Z,3.40
2024-04-26T01:52:21.466Z,3.53
2024-04-26T01:52:40.849Z,3.57
2024-04-26T01:52:50.851Z,3.52
2024-04-26T01:53:00.880Z,3.58
2024-04-26T01:53:10.837Z,3.62
2024-04-26T01:53:20.853Z,3.50
2024-04-26T01:53:30.855Z,3.60
2024-04-26T01:53:40.915Z,3.52
2024-04-26T01:53:50.902Z,3.71
2024-04-26T01:54:10.878Z,3.54
2024-04-26T01:54:20.836Z,3.46
2024-04-26T01:54:30.876Z,3.47
2024-04-26T01:54:40.849Z,3.57
2024-04-26T01:54:50.868Z,3.44
2024-04-26T01:55:01.007Z,3.44
2024-04-26T01:55:10.843Z,3.42
2024-04-26T01:55:20.862Z,3.46
2024-04-26T01:55:40.844Z,3.53
2024-04-26T01:55:50.851Z,3.42
2024-04-26T01:56:00.845Z,3.46
2024-04-26T01:56:10.836Z,3.44
2024-04-26T01:56:21.552Z,3.44
2024-04-26T01:56:30.887Z,3.34
2024-04-26T01:56:40.917Z,3.53
2024-04-26T01:56:50.868Z,3.58
2024-04-26T01:57:00.967Z,3.42
2024-04-26T01:57:10.911Z,3.61
2024-04-26T01:57:30.823Z,3.44
2024-04-26T01:57:40.909Z,3.57
2024-04-26T01:57:50.817Z,3.40
2024-04-26T01:58:00.820Z,3.62
2024-04-26T01:58:11.483Z,3.54
2024-04-26T01:58:20.827Z,3.53
2024-04-26T01:58:30.824Z,3.49
2024-04-26T01:58:50.819Z,3.52
2024-04-26T01:59:01.449Z,3.53
2024-04-26T01:59:10.855Z,3.50
2024-04-26T01:59:20.900Z,3.47
2024-04-26T01:59:30.896Z,3.47
2024-04-26T01:59:40.856Z,3.52
2024-04-26T01:59:50.850Z,3.54
2024-04-26T02:00:10.916Z,3.54
2024-04-26T02:00:20.820Z,3.46
2024-04-26T02:00:30.878Z,3.57
2024-04-26T02:00:40.848Z,3.39
2024-04-26T02:00:50.896Z,3.39
2024-04-26T02:01:00.849Z,3.64
2024-04-26T02:01:20.876Z,3.39
2024-04-26T02:01:30.859Z,3.31
2024-04-26T02:01:41.460Z,3.64
2024-04-26T02:01:50.892Z,3.62
2024-04-26T02:02:00.855Z,3.54
2024-04-26T02:02:10.911Z,3.53
2024-04-26T02:02:30.920Z,3.64
2024-04-26T02:02:40.904Z,3.61
2024-04-26T02:02:50.927Z,3.34
2024-04-26T02:03:01.014Z,3.58
2024-04-26T02:03:10.987Z,3.58
2024-04-26T02:03:20.884Z,3.33
2024-04-26T02:03:40.926Z,3.46
2024-04-26T02:03:51.608Z,3.60
2024-04-26T02:04:00.981Z,3.50
2024-04-26T02:04:10.927Z,3.60
2024-04-26T02:04:20.874Z,3.47
2024-04-26T02:04:30.874Z,3.47
2024-04-26T02:04:50.828Z,3.54
2024-04-26T02:05:00.789Z,3.43
2024-04-26T02:05:10.893Z,3.49
2024-04-26T02:05:20.795Z,3.46
2024-04-26T02:05:30.850Z,3.68
2024-04-26T02:05:40.963Z,3.64
2024-04-26T02:05:50.831Z,3.53
2024-04-26T02:06:00.969Z,3.53
2024-04-26T02:06:20.786Z,3.50
2024-04-26T02:06:30.795Z,3.49
2024-04-26T02:06:40.832Z,3.57
2024-04-26T02:06:50.792Z,3.58
2024-04-26T02:07:00.859Z,3.52
2024-04-26T02:07:10.805Z,3.43
2024-04-26T02:07:30.779Z,3.57
2024-04-26T02:07:40.899Z,3.75
2024-04-26T02:07:50.800Z,3.67
2024-04-26T02:08:00.783Z,3.68
2024-04-26T02:08:10.816Z,3.60
2024-04-26T02:08:20.801Z,3.49
2024-04-26T02:08:30.807Z,3.57
2024-04-26T02:08:40.807Z,3.58
2024-04-26T02:09:00.909Z,3.57
2024-04-26T02:09:10.883Z,3.75
2024-04-26T02:09:20.767Z,3.54
2024-04-26T02:09:30.791Z,3.62
2024-04-26T02:09:40.820Z,3.65
2024-04-26T02:09:50.814Z,3.57
2024-04-26T02:10:10.784Z,3.54
2024-04-26T02:10:20.783Z,3.65
2024-04-26T02:10:30.797Z,3.53
2024-04-26T02:10:40.817Z,3.64
2024-04-26T02:10:50.821Z,3.52
2024-04-26T02:11:00.916Z,3.60
2024-04-26T02:11:20.822Z,3.71
2024-04-26T02:11:30.834Z,3.65
2024-04-26T02:11:40.910Z,3.68
2024-04-26T02:11:51.494Z,3.64
2024-04-26T02:12:00.789Z,3.76
2024-04-26T02:12:10.860Z,3.85
2024-04-26T02:12:21.008Z,3.65
2024-04-26T02:12:30.856Z,3.58
2024-04-26T02:12:50.764Z,3.76
2024-04-26T02:13:00.809Z,3.70
2024-04-26T02:13:10.774Z,3.62
2024-04-26T02:13:20.782Z,3.76
2024-04-26T02:13:30.776Z,3.68
2024-04-26T02:13:41.469Z,3.72
2024-04-26T02:13:50.872Z,3.83
2024-04-26T02:14:00.793Z,3.80
2024-04-26T02:14:10.790Z,3.88
2024-04-26T02:14:20.857Z,3.53
2024-04-26T02:14:40.872Z,3.79
2024-04-26T02:14:50.810Z,3.70
2024-04-26T02:15:00.839Z,3.88
2024-04-26T02:15:10.822Z,3.64
2024-04-26T02:15:20.764Z,3.70
2024-04-26T02:15:30.752Z,3.75
2024-04-26T02:15:51.465Z,3.64
2024-04-26T02:16:00.741Z,3.65
2024-04-26T02:16:10.782Z,3.72
2024-04-26T02:16:20.759Z,3.82
2024-04-26T02:16:30.781Z,3.61
2024-04-26T02:16:40.853Z,3.62
2024-04-26T02:17:00.892Z,3.70
2024-04-26T02:17:10.971Z,3.71
2024-04-26T02:17:21.002Z,3.86
2024-04-26T02:17:31.097Z,3.75
2024-04-26T02:17:41.547Z,3.76
2024-04-26T02:17:50.958Z,3.75
2024-04-26T02:18:10.792Z,3.70
2024-04-26T02:18:20.858Z,3.71
2024-04-26T02:18:30.893Z,3.75
2024-04-26T02:18:40.865Z,3.89
2024-04-26T02:18:51.231Z,3.72
2024-04-26T02:19:01.335Z,3.88
2024-04-26T02:19:10.813Z,3.80
2024-04-26T02:19:20.739Z,3.79
2024-04-26T02:19:40.816Z,3.82
2024-04-26T02:19:50.726Z,3.80
2024-04-26T02:20:00.738Z,3.89
2024-04-26T02:20:10.798Z,4.07
2024-04-26T02:20:20.728Z,3.82
2024-04-26T02:20:30.831Z,3.79
2024-04-26T02:20:50.772Z,3.88
2024-04-26T02:21:01.465Z,3.76
2024-04-26T02:21:10.777Z,3.88
2024-04-26T02:21:20.730Z,3.89
2024-04-26T02:21:30.726Z,3.65
2024-04-26T02:21:40.715Z,3.96
2024-04-26T02:21:51.455Z,3.88
2024-04-26T02:22:01.469Z,3.80
2024-04-26T02:22:10.776Z,3.70
2024-04-26T02:22:30.846Z,3.80
2024-04-26T02:22:40.729Z,3.96
2024-04-26T02:22:50.750Z,3.85
2024-04-26T02:23:00.857Z,3.79
2024-04-26T02:23:10.719Z,3.96
2024-04-26T02:23:20.732Z,3.97
2024-04-26T02:23:40.798Z,3.92
2024-04-26T02:23:50.977Z,3.89
2024-04-26T02:24:01.029Z,3.85
2024-04-26T02:24:10.830Z,3.75
2024-04-26T02:24:20.762Z,3.85
2024-04-26T02:24:30.785Z,3.90
2024-04-26T02:24:50.732Z,3.88
2024-04-26T02:25:00.699Z,3.82
2024-04-26T02:25:10.765Z,3.94
2024-04-26T02:25:20.823Z,3.90
2024-04-26T02:25:30.716Z,4.01
2024-04-26T02:25:40.737Z,3.86
2024-04-26T02:25:50.791Z,4.00
2024-04-26T02:26:00.719Z,4.04
2024-04-26T02:26:20.814Z,3.83
2024-04-26T02:26:30.775Z,3.92
2024-04-26T02:26:40.754Z,4.00
2024-04-26T02:26:50.771Z,3.86
2024-04-26T02:27:00.761Z,3.82
2024-04-26T02:27:11.033Z,3.98
2024-04-26T02:27:30.708Z,4.06
2024-04-26T02:27:40.771Z,4.03
2024-04-26T02:27:50.837Z,3.85
2024-04-26T02:28:00.703Z,4.04
2024-04-26T02:28:11.477Z,3.96
2024-04-26T02:28:20.754Z,4.04
2024-04-26T02:28:40.742Z,4.00
2024-04-26T02:28:50.691Z,3.88
2024-04-26T02:29:01.453Z,4.01
2024-04-26T02:29:10.754Z,4.03
2024-04-26T02:29:20.695Z,4.07
2024-04-26T02:29:30.795Z,4.15
2024-04-26T02:29:50.747Z,4.07
2024-04-26T02:30:01.013Z,4.10
2024-04-26T02:30:10.758Z,4.03
2024-04-26T02:30:20.695Z,4.01
2024-04-26T02:30:30.816Z,4.00
2024-04-26T02:30:40.689Z,4.15
2024-04-26T02:31:00.680Z,3.96
2024-04-26T02:31:10.676Z,4.07
2024-04-26T02:31:20.696Z,4.21
2024-04-26T02:31:30.846Z,3.94
2024-04-26T02:31:40.689Z,4.10
2024-04-26T02:31:50.738Z,4.16
2024-04-26T02:32:00.752Z,4.04
2024-04-26T02:32:11.505Z,4.00
2024-04-26T02:32:20.743Z,4.12
2024-04-26T02:32:31.783Z,3.90